BTCO2: Turkey Creek nr Bison, OK

Data processed at Thu May 23 2019 23:50


All information presented herein is the property of the government of the United States of America and may be revised or deleted at any time without prior notice.
Dissemination of this information without the expressed written consent of the Public Affairs Office, Tulsa District U.S. Army Corps of Engineers is strictly prohibited.
These data are gathered electronically and, as presented, have not undergone any form of quality control. These data are not guaranteed to be valid or correct.
Go to home page.
Go to station list.
Go to home page.

Upstream stations:

Downstream station:
Previous Day
Next Day
Current Day
    
SHEF ID:       BTCO2     Turkey Creek nr Bison, OK
STATION TYPE:  

               PRECIP     STAGE  STAGE(2)  RIV-FLOW   VOLTAGE  BAT-LOAD
                   in        ft        ft       cfs      volt      volt
              Ccp-Rev   Ccp-Rev   Ccp-Rev   Ccp-Rev   Ccp-Rev   Ccp-Rev
(US/Central)
05/23 00:00      0.00     18.00      ----      2856     12.81     12.65
05/23 01:00      0.00     17.85      ----      2801     12.81     12.65
05/23 02:00      0.01     17.73      ----      2758     12.81     12.65
05/23 03:00      0.00     17.63      ----      2721     12.81     12.65
05/23 04:00      0.00     17.48      ----      2668     12.81     12.57
05/23 05:00      0.00     17.36      ----      2625     12.81     12.57
05/23 06:00      0.00     17.30      ----      2604     12.73     12.57
05/23 07:00      0.00     17.22      ----      2575     12.73     12.57
05/23 08:00      0.00     17.13      ----      2544     12.81     12.57
05/23 09:00      0.00     17.01      ----      2498     12.81     12.65
05/23 10:00      0.00     16.94      ----      2471     12.89     12.65
05/23 11:00      0.00     16.84      ----      2432     13.29     12.73
05/23 12:00      0.00     16.75      ----      2397     13.29     13.13
05/23 13:00      0.00     16.66      ----      2363     13.53     13.29
05/23 14:00      0.00     16.60      ----      2340     13.44     13.05
05/23 15:00      0.00     16.52      ----      2310     13.05     12.81
05/23 16:00      0.00     16.46      ----      2287     13.60     12.81
05/23 17:00      0.00     16.38      ----      2257     13.76     12.81
05/23 18:00      0.00     16.31      ----      2231     13.60     12.81
05/23 19:00      0.00     16.23      ----      2201     13.84     12.81
05/23 20:00      0.00     16.16      ----      2177     12.89     12.73
05/23 21:00      0.00     16.06      ----      2144     12.89     12.73
05/23 22:00      0.00     16.01      ----      2128     12.89     12.73
05/23 23:00      0.00     15.95      ----      2108     12.89     12.65